sensor_id;sensor_type;location;lat;lon;timestamp;pressure;altitude;pressure_sealevel;temperature;humidity
7966;BME280;4028;43.272;26.932;2022-08-19T00:01:38;98688.75;;;25.70;100.00
7966;BME280;4028;43.272;26.932;2022-08-19T00:04:07;98683.63;;;25.74;100.00
7966;BME280;4028;43.272;26.932;2022-08-19T00:06:34;98686.03;;;25.70;100.00
7966;BME280;4028;43.272;26.932;2022-08-19T00:09:00;98685.97;;;25.65;100.00
7966;BME280;4028;43.272;26.932;2022-08-19T00:11:26;98687.81;;;25.59;100.00
7966;BME280;4028;43.272;26.932;2022-08-19T00:13:53;98694.22;;;25.53;100.00
7966;BME280;4028;43.272;26.932;2022-08-19T00:16:20;98635.53;;;25.15;100.00
7966;BME280;4028;43.272;26.932;2022-08-19T00:18:47;98696.31;;;25.46;100.00
7966;BME280;4028;43.272;26.932;2022-08-19T00:21:13;98693.78;;;25.39;100.00
7966;BME280;4028;43.272;26.932;2022-08-19T00:23:39;98699.69;;;25.36;100.00
7966;BME280;4028;43.272;26.932;2022-08-19T00:26:05;98676.13;;;25.15;100.00
7966;BME280;4028;43.272;26.932;2022-08-19T00:28:32;98697.25;;;25.35;100.00
7966;BME280;4028;43.272;26.932;2022-08-19T00:30:59;98705.03;;;25.31;100.00
7966;BME280;4028;43.272;26.932;2022-08-19T00:33:24;98702.00;;;25.28;100.00
7966;BME280;4028;43.272;26.932;2022-08-19T00:35:50;98704.34;;;25.19;100.00
7966;BME280;4028;43.272;26.932;2022-08-19T00:38:16;98707.88;;;25.20;100.00
7966;BME280;4028;43.272;26.932;2022-08-19T00:40:43;98697.25;;;25.18;100.00
7966;BME280;4028;43.272;26.932;2022-08-19T00:43:12;98698.94;;;25.19;100.00
7966;BME280;4028;43.272;26.932;2022-08-19T00:45:43;98704.34;;;25.19;100.00
7966;BME280;4028;43.272;26.932;2022-08-19T00:48:09;98707.53;;;25.16;100.00
7966;BME280;4028;43.272;26.932;2022-08-19T00:50:35;98698.59;;;25.15;100.00
7966;BME280;4028;43.272;26.932;2022-08-19T00:53:02;98682.66;;;25.02;100.00
7966;BME280;4028;43.272;26.932;2022-08-19T00:55:31;98699.34;;;25.11;100.00
7966;BME280;4028;43.272;26.932;2022-08-19T00:58:10;98658.78;;;24.77;100.00
7966;BME280;4028;43.272;26.932;2022-08-19T01:00:38;98690.78;;;25.02;100.00
7966;BME280;4028;43.272;26.932;2022-08-19T01:03:09;98695.63;;;25.00;100.00
7966;BME280;4028;43.272;26.932;2022-08-19T01:05:35;98694.81;;;25.00;100.00
7966;BME280;4028;43.272;26.932;2022-08-19T01:08:04;98697.53;;;25.00;100.00
7966;BME280;4028;43.272;26.932;2022-08-19T01:10:33;98699.41;;;24.99;100.00
7966;BME280;4028;43.272;26.932;2022-08-19T01:13:01;98670.25;;;24.84;100.00
7966;BME280;4028;43.272;26.932;2022-08-19T01:15:31;98694.00;;;24.99;100.00
7966;BME280;4028;43.272;26.932;2022-08-19T01:18:00;98697.47;;;24.95;100.00
7966;BME280;4028;43.272;26.932;2022-08-19T01:20:29;98693.19;;;24.99;100.00
7966;BME280;4028;43.272;26.932;2022-08-19T01:22:57;98681.56;;;24.81;100.00
7966;BME280;4028;43.272;26.932;2022-08-19T01:25:35;98699.56;;;24.93;100.00
7966;BME280;4028;43.272;26.932;2022-08-19T01:28:01;98700.66;;;24.92;100.00
7966;BME280;4028;43.272;26.932;2022-08-19T01:30:31;98704.69;;;24.89;100.00
7966;BME280;4028;43.272;26.932;2022-08-19T01:32:58;98674.00;;;24.67;100.00
7966;BME280;4028;43.272;26.932;2022-08-19T01:35:26;98690.41;;;24.60;100.00
7966;BME280;4028;43.272;26.932;2022-08-19T01:37:59;98694.91;;;24.71;100.00
7966;BME280;4028;43.272;26.932;2022-08-19T01:40:28;98697.31;;;24.84;100.00
7966;BME280;4028;43.272;26.932;2022-08-19T01:42:55;98692.63;;;24.80;100.00
7966;BME280;4028;43.272;26.932;2022-08-19T01:45:22;98700.59;;;24.70;100.00
7966;BME280;4028;43.272;26.932;2022-08-19T01:47:48;98697.88;;;24.70;100.00
7966;BME280;4028;43.272;26.932;2022-08-19T01:50:14;98664.84;;;24.51;100.00
7966;BME280;4028;43.272;26.932;2022-08-19T01:52:42;98701.66;;;24.69;100.00
7966;BME280;4028;43.272;26.932;2022-08-19T01:55:10;98698.63;;;24.65;100.00
7966;BME280;4028;43.272;26.932;2022-08-19T01:57:36;98692.06;;;24.61;100.00
7966;BME280;4028;43.272;26.932;2022-08-19T02:00:07;98686.06;;;24.59;100.00
7966;BME280;4028;43.272;26.932;2022-08-19T02:02:33;98683.53;;;24.52;100.00
7966;BME280;4028;43.272;26.932;2022-08-19T02:04:59;98671.22;;;24.45;100.00
7966;BME280;4028;43.272;26.932;2022-08-19T02:07:24;98694.94;;;24.54;100.00
7966;BME280;4028;43.272;26.932;2022-08-19T02:09:50;98671.81;;;24.47;100.00
7966;BME280;4028;43.272;26.932;2022-08-19T02:12:15;98688.13;;;24.52;100.00
7966;BME280;4028;43.272;26.932;2022-08-19T02:14:41;98684.28;;;24.48;100.00
7966;BME280;4028;43.272;26.932;2022-08-19T02:17:07;98683.13;;;24.44;100.00
7966;BME280;4028;43.272;26.932;2022-08-19T02:19:32;98683.13;;;24.44;100.00
7966;BME280;4028;43.272;26.932;2022-08-19T02:21:59;98681.16;;;24.39;100.00
7966;BME280;4028;43.272;26.932;2022-08-19T02:24:26;98687.03;;;24.36;100.00
7966;BME280;4028;43.272;26.932;2022-08-19T02:26:51;98672.59;;;24.30;100.00
7966;BME280;4028;43.272;26.932;2022-08-19T02:29:17;98682.91;;;24.33;100.00
7966;BME280;4028;43.272;26.932;2022-08-19T02:31:42;98686.44;;;24.34;100.00
7966;BME280;4028;43.272;26.932;2022-08-19T02:34:08;98694.22;;;24.30;100.00
7966;BME280;4028;43.272;26.932;2022-08-19T02:36:34;98689.31;;;24.27;100.00
7966;BME280;4028;43.272;26.932;2022-08-19T02:38:59;98702.72;;;24.22;100.00
7966;BME280;4028;43.272;26.932;2022-08-19T02:41:28;98698.97;;;24.23;100.00
7966;BME280;4028;43.272;26.932;2022-08-19T02:43:59;98693.00;;;24.21;100.00
7966;BME280;4028;43.272;26.932;2022-08-19T02:46:28;98694.84;;;24.21;100.00
7966;BME280;4028;43.272;26.932;2022-08-19T02:49:00;98692.31;;;24.14;100.00
7966;BME280;4028;43.272;26.932;2022-08-19T02:51:33;98680.31;;;24.10;100.00
7966;BME280;4028;43.272;26.932;2022-08-19T02:53:59;98691.47;;;24.13;100.00
7966;BME280;4028;43.272;26.932;2022-08-19T02:56:26;98692.47;;;24.07;100.00
7966;BME280;4028;43.272;26.932;2022-08-19T02:58:53;98706.63;;;24.15;100.00
7966;BME280;4028;43.272;26.932;2022-08-19T03:01:28;98706.88;;;24.13;100.00
7966;BME280;4028;43.272;26.932;2022-08-19T03:03:54;98707.34;;;24.10;100.00
7966;BME280;4028;43.272;26.932;2022-08-19T03:06:20;98704.91;;;24.08;100.00
7966;BME280;4028;43.272;26.932;2022-08-19T03:08:47;98700.81;;;24.06;100.00
7966;BME280;4028;43.272;26.932;2022-08-19T03:11:18;98699.84;;;24.12;100.00
7966;BME280;4028;43.272;26.932;2022-08-19T03:13:44;98693.19;;;24.03;100.00
7966;BME280;4028;43.272;26.932;2022-08-19T03:16:10;98713.97;;;24.02;100.00
7966;BME280;4028;43.272;26.932;2022-08-19T03:18:36;98696.84;;;23.97;100.00
7966;BME280;4028;43.272;26.932;2022-08-19T03:21:01;98711.53;;;24.01;100.00
7966;BME280;4028;43.272;26.932;2022-08-19T03:23:27;98714.22;;;24.01;100.00
7966;BME280;4028;43.272;26.932;2022-08-19T03:25:53;98708.22;;;23.99;100.00
7966;BME280;4028;43.272;26.932;2022-08-19T03:28:19;98699.38;;;23.86;100.00
7966;BME280;4028;43.272;26.932;2022-08-19T03:31:01;98717.06;;;23.94;100.00
7966;BME280;4028;43.272;26.932;2022-08-19T03:33:28;98723.19;;;23.90;100.00
7966;BME280;4028;43.272;26.932;2022-08-19T03:36:11;98710.47;;;23.90;100.00
7966;BME280;4028;43.272;26.932;2022-08-19T03:38:44;98722.09;;;24.02;100.00
7966;BME280;4028;43.272;26.932;2022-08-19T03:41:16;98719.38;;;24.02;100.00
7966;BME280;4028;43.272;26.932;2022-08-19T03:43:42;98723.16;;;24.01;100.00
7966;BME280;4028;43.272;26.932;2022-08-19T03:46:11;98713.53;;;23.94;100.00
7966;BME280;4028;43.272;26.932;2022-08-19T03:48:37;98717.84;;;24.06;100.00
7966;BME280;4028;43.272;26.932;2022-08-19T03:51:04;98729.47;;;24.07;100.00
7966;BME280;4028;43.272;26.932;2022-08-19T03:53:31;98720.31;;;24.08;100.00
7966;BME280;4028;43.272;26.932;2022-08-19T03:55:57;98717.94;;;24.11;100.00
7966;BME280;4028;43.272;26.932;2022-08-19T03:58:25;98738.53;;;24.29;100.00
7966;BME280;4028;43.272;26.932;2022-08-19T04:00:53;98733.09;;;24.41;100.00
7966;BME280;4028;43.272;26.932;2022-08-19T04:03:18;98730.56;;;24.51;100.00
7966;BME280;4028;43.272;26.932;2022-08-19T04:05:44;98735.09;;;24.62;100.00
7966;BME280;4028;43.272;26.932;2022-08-19T04:08:10;98745.09;;;24.79;100.00
7966;BME280;4028;43.272;26.932;2022-08-19T04:10:37;98746.50;;;24.98;100.00
7966;BME280;4028;43.272;26.932;2022-08-19T04:13:04;98743.44;;;25.28;100.00
7966;BME280;4028;43.272;26.932;2022-08-19T04:15:31;98709.34;;;25.71;100.00
7966;BME280;4028;43.272;26.932;2022-08-19T04:18:01;98745.03;;;26.61;100.00
7966;BME280;4028;43.272;26.932;2022-08-19T04:20:27;98750.22;;;27.32;99.66
7966;BME280;4028;43.272;26.932;2022-08-19T04:22:52;98749.47;;;27.99;89.11
7966;BME280;4028;43.272;26.932;2022-08-19T04:25:18;98746.09;;;28.55;80.01
7966;BME280;4028;43.272;26.932;2022-08-19T04:27:43;98755.94;;;28.96;74.88
7966;BME280;4028;43.272;26.932;2022-08-19T04:30:13;98734.94;;;28.87;72.81
7966;BME280;4028;43.272;26.932;2022-08-19T04:32:39;98760.00;;;28.73;74.71
7966;BME280;4028;43.272;26.932;2022-08-19T04:35:05;98759.66;;;28.34;77.37
7966;BME280;4028;43.272;26.932;2022-08-19T04:37:30;98754.94;;;28.04;84.23
7966;BME280;4028;43.272;26.932;2022-08-19T04:39:58;98762.44;;;27.71;90.81
7966;BME280;4028;43.272;26.932;2022-08-19T04:42:42;98764.13;;;27.40;96.82
7966;BME280;4028;43.272;26.932;2022-08-19T04:45:13;98765.47;;;27.01;100.00
7966;BME280;4028;43.272;26.932;2022-08-19T04:47:40;98761.84;;;26.58;100.00
7966;BME280;4028;43.272;26.932;2022-08-19T04:50:07;98763.69;;;26.30;100.00
7966;BME280;4028;43.272;26.932;2022-08-19T04:52:34;98779.56;;;26.16;100.00
7966;BME280;4028;43.272;26.932;2022-08-19T04:54:59;98771.13;;;25.91;100.00
7966;BME280;4028;43.272;26.932;2022-08-19T04:57:25;98765.16;;;25.72;100.00
7966;BME280;4028;43.272;26.932;2022-08-19T04:59:56;98768.00;;;25.60;100.00
7966;BME280;4028;43.272;26.932;2022-08-19T05:02:22;98766.13;;;25.61;100.00
7966;BME280;4028;43.272;26.932;2022-08-19T05:04:58;98780.91;;;25.53;100.00
7966;BME280;4028;43.272;26.932;2022-08-19T05:07:26;98775.72;;;25.52;100.00
7966;BME280;4028;43.272;26.932;2022-08-19T05:09:52;98772.22;;;25.51;100.00
7966;BME280;4028;43.272;26.932;2022-08-19T05:12:18;98777.13;;;25.54;100.00
7966;BME280;4028;43.272;26.932;2022-08-19T05:14:44;98779.78;;;25.49;100.00
7966;BME280;4028;43.272;26.932;2022-08-19T05:17:11;98781.84;;;25.64;100.00
7966;BME280;4028;43.272;26.932;2022-08-19T05:19:36;98781.84;;;25.64;100.00
7966;BME280;4028;43.272;26.932;2022-08-19T05:22:21;98779.22;;;25.69;100.00
7966;BME280;4028;43.272;26.932;2022-08-19T05:25:04;98781.97;;;25.74;100.00
7966;BME280;4028;43.272;26.932;2022-08-19T05:27:30;98755.75;;;25.75;100.00
7966;BME280;4028;43.272;26.932;2022-08-19T05:29:56;98781.78;;;25.98;100.00
7966;BME280;4028;43.272;26.932;2022-08-19T05:32:21;98779.69;;;26.05;100.00
7966;BME280;4028;43.272;26.932;2022-08-19T05:34:48;98779.03;;;26.19;100.00
7966;BME280;4028;43.272;26.932;2022-08-19T05:37:14;98750.78;;;26.15;100.00
7966;BME280;4028;43.272;26.932;2022-08-19T05:39:39;98780.06;;;26.40;100.00
7966;BME280;4028;43.272;26.932;2022-08-19T05:42:10;98778.44;;;26.39;100.00
7966;BME280;4028;43.272;26.932;2022-08-19T05:44:39;98780.13;;;26.67;100.00
7966;BME280;4028;43.272;26.932;2022-08-19T05:47:06;98777.59;;;26.88;100.00
7966;BME280;4028;43.272;26.932;2022-08-19T05:49:34;98749.16;;;27.01;100.00
7966;BME280;4028;43.272;26.932;2022-08-19T05:52:08;98772.47;;;27.71;93.73
7966;BME280;4028;43.272;26.932;2022-08-19T05:54:37;98780.63;;;28.39;88.17
7966;BME280;4028;43.272;26.932;2022-08-19T05:57:06;98770.38;;;28.97;80.24
7966;BME280;4028;43.272;26.932;2022-08-19T05:59:32;98768.66;;;29.57;70.32
7966;BME280;4028;43.272;26.932;2022-08-19T06:02:01;98767.94;;;30.16;66.23
7966;BME280;4028;43.272;26.932;2022-08-19T06:04:26;98765.69;;;30.68;63.47
7966;BME280;4028;43.272;26.932;2022-08-19T06:06:53;98745.19;;;31.04;60.26
7966;BME280;4028;43.272;26.932;2022-08-19T06:09:20;98775.88;;;31.54;57.75
7966;BME280;4028;43.272;26.932;2022-08-19T06:11:49;98771.63;;;31.67;55.44
7966;BME280;4028;43.272;26.932;2022-08-19T06:14:20;98771.00;;;31.75;55.48
7966;BME280;4028;43.272;26.932;2022-08-19T06:16:46;98771.22;;;31.79;54.92
7966;BME280;4028;43.272;26.932;2022-08-19T06:19:14;98764.06;;;32.07;53.63
7966;BME280;4028;43.272;26.932;2022-08-19T06:21:43;98773.72;;;32.42;52.48
7966;BME280;4028;43.272;26.932;2022-08-19T06:24:11;98787.03;;;32.86;51.00
7966;BME280;4028;43.272;26.932;2022-08-19T06:26:39;98781.81;;;32.85;51.98
7966;BME280;4028;43.272;26.932;2022-08-19T06:29:07;98769.88;;;33.14;50.26
7966;BME280;4028;43.272;26.932;2022-08-19T06:31:34;98770.47;;;33.43;49.25
7966;BME280;4028;43.272;26.932;2022-08-19T06:34:03;98779.69;;;33.47;48.05
7966;BME280;4028;43.272;26.932;2022-08-19T06:36:38;98783.88;;;33.58;48.64
7966;BME280;4028;43.272;26.932;2022-08-19T06:39:07;98776.25;;;33.83;48.12
7966;BME280;4028;43.272;26.932;2022-08-19T06:41:38;98775.16;;;33.70;47.56
7966;BME280;4028;43.272;26.932;2022-08-19T06:44:05;98768.31;;;34.09;47.43
7966;BME280;4028;43.272;26.932;2022-08-19T06:46:31;98751.72;;;34.28;46.90
7966;BME280;4028;43.272;26.932;2022-08-19T06:48:57;98768.72;;;34.66;46.12
7966;BME280;4028;43.272;26.932;2022-08-19T06:51:23;98755.41;;;34.82;46.09
7966;BME280;4028;43.272;26.932;2022-08-19T06:53:51;98764.91;;;34.98;45.31
7966;BME280;4028;43.272;26.932;2022-08-19T06:56:23;98762.09;;;35.12;44.34
7966;BME280;4028;43.272;26.932;2022-08-19T06:58:50;98763.00;;;34.85;44.26
7966;BME280;4028;43.272;26.932;2022-08-19T07:01:18;98756.69;;;34.98;44.59
7966;BME280;4028;43.272;26.932;2022-08-19T07:03:44;98763.06;;;35.16;44.43
7966;BME280;4028;43.272;26.932;2022-08-19T07:06:14;98744.88;;;35.29;42.88
7966;BME280;4028;43.272;26.932;2022-08-19T07:08:46;98766.06;;;35.28;43.59
7966;BME280;4028;43.272;26.932;2022-08-19T07:11:16;98757.81;;;35.28;42.75
7966;BME280;4028;43.272;26.932;2022-08-19T07:13:43;98759.63;;;35.73;44.04
7966;BME280;4028;43.272;26.932;2022-08-19T07:16:12;98759.75;;;35.99;41.44
7966;BME280;4028;43.272;26.932;2022-08-19T07:18:39;98762.41;;;35.81;41.61
7966;BME280;4028;43.272;26.932;2022-08-19T07:21:06;98754.41;;;35.31;41.91
7966;BME280;4028;43.272;26.932;2022-08-19T07:23:33;98757.16;;;35.62;41.99
7966;BME280;4028;43.272;26.932;2022-08-19T07:26:03;98750.78;;;35.84;42.02
7966;BME280;4028;43.272;26.932;2022-08-19T07:28:29;98749.56;;;36.16;41.89
7966;BME280;4028;43.272;26.932;2022-08-19T07:30:54;98748.28;;;36.31;41.05
7966;BME280;4028;43.272;26.932;2022-08-19T07:33:20;98746.84;;;35.77;40.87
7966;BME280;4028;43.272;26.932;2022-08-19T07:35:45;98752.34;;;35.06;41.69
7966;BME280;4028;43.272;26.932;2022-08-19T07:38:11;98749.16;;;35.43;42.96
7966;BME280;4028;43.272;26.932;2022-08-19T07:40:36;98740.63;;;35.93;41.60
7966;BME280;4028;43.272;26.932;2022-08-19T07:43:02;98740.38;;;36.56;41.21
7966;BME280;4028;43.272;26.932;2022-08-19T07:45:27;98751.50;;;36.85;39.43
7966;BME280;4028;43.272;26.932;2022-08-19T07:47:54;98744.06;;;36.86;39.31
7966;BME280;4028;43.272;26.932;2022-08-19T07:50:20;98748.13;;;36.97;39.69
7966;BME280;4028;43.272;26.932;2022-08-19T07:52:47;98724.44;;;36.87;39.11
7966;BME280;4028;43.272;26.932;2022-08-19T07:55:16;98760.19;;;37.31;39.35
7966;BME280;4028;43.272;26.932;2022-08-19T07:57:41;98759.75;;;37.67;38.80
7966;BME280;4028;43.272;26.932;2022-08-19T08:00:07;98757.84;;;37.59;38.12
7966;BME280;4028;43.272;26.932;2022-08-19T08:02:33;98756.53;;;37.56;38.71
7966;BME280;4028;43.272;26.932;2022-08-19T08:04:58;98752.75;;;37.69;38.46
7966;BME280;4028;43.272;26.932;2022-08-19T08:07:42;98756.06;;;37.63;38.08
7966;BME280;4028;43.272;26.932;2022-08-19T08:10:26;98734.56;;;37.39;37.78
7966;BME280;4028;43.272;26.932;2022-08-19T08:12:52;98755.72;;;37.00;37.86
7966;BME280;4028;43.272;26.932;2022-08-19T08:15:17;98748.75;;;36.16;39.22
7966;BME280;4028;43.272;26.932;2022-08-19T08:17:44;98746.81;;;35.59;40.08
7966;BME280;4028;43.272;26.932;2022-08-19T08:20:11;98747.56;;;35.20;42.00
7966;BME280;4028;43.272;26.932;2022-08-19T08:22:37;98743.56;;;35.57;41.58
7966;BME280;4028;43.272;26.932;2022-08-19T08:25:23;98742.38;;;35.89;40.23
7966;BME280;4028;43.272;26.932;2022-08-19T08:27:49;98744.75;;;35.82;39.77
7966;BME280;4028;43.272;26.932;2022-08-19T08:30:20;98723.88;;;35.81;39.59
7966;BME280;4028;43.272;26.932;2022-08-19T08:32:47;98744.88;;;36.26;39.68
7966;BME280;4028;43.272;26.932;2022-08-19T08:35:14;98731.59;;;36.28;38.35
7966;BME280;4028;43.272;26.932;2022-08-19T08:37:41;98737.75;;;36.25;38.14
7966;BME280;4028;43.272;26.932;2022-08-19T08:40:22;98738.25;;;36.44;38.51
7966;BME280;4028;43.272;26.932;2022-08-19T08:46:17;98728.13;;;37.09;37.17
7966;BME280;4028;43.272;26.932;2022-08-19T08:48:56;98700.56;;;37.09;35.84
7966;BME280;4028;43.272;26.932;2022-08-19T08:51:28;98733.69;;;36.83;36.58
7966;BME280;4028;43.272;26.932;2022-08-19T08:53:55;98731.41;;;36.85;36.82
7966;BME280;4028;43.272;26.932;2022-08-19T08:56:21;98731.69;;;37.18;36.38
7966;BME280;4028;43.272;26.932;2022-08-19T08:59:02;98730.69;;;37.22;35.88
7966;BME280;4028;43.272;26.932;2022-08-19T09:01:32;98728.50;;;37.45;35.13
7966;BME280;4028;43.272;26.932;2022-08-19T09:03:57;98733.69;;;36.83;35.99
7966;BME280;4028;43.272;26.932;2022-08-19T09:14:16;98733.59;;;35.39;38.64
7966;BME280;4028;43.272;26.932;2022-08-19T09:16:45;98731.97;;;34.84;39.28
7966;BME280;4028;43.272;26.932;2022-08-19T09:19:10;98742.31;;;34.43;38.89
7966;BME280;4028;43.272;26.932;2022-08-19T09:21:36;98731.41;;;34.74;39.00
7966;BME280;4028;43.272;26.932;2022-08-19T09:24:05;98729.47;;;35.19;38.83
7966;BME280;4028;43.272;26.932;2022-08-19T09:26:32;98729.47;;;35.99;38.10
7966;BME280;4028;43.272;26.932;2022-08-19T09:28:58;98728.50;;;36.38;37.24
7966;BME280;4028;43.272;26.932;2022-08-19T09:31:28;98720.59;;;36.71;36.80
7966;BME280;4028;43.272;26.932;2022-08-19T09:33:55;98734.00;;;36.99;36.36
7966;BME280;4028;43.272;26.932;2022-08-19T09:36:26;98721.94;;;37.20;36.60
7966;BME280;4028;43.272;26.932;2022-08-19T09:38:55;98724.97;;;37.36;35.77
7966;BME280;4028;43.272;26.932;2022-08-19T09:41:22;98721.38;;;37.36;35.89
7966;BME280;4028;43.272;26.932;2022-08-19T09:43:50;98715.16;;;37.56;35.55
7966;BME280;4028;43.272;26.932;2022-08-19T09:46:18;98720.69;;;37.86;34.51
7966;BME280;4028;43.272;26.932;2022-08-19T09:48:45;98723.25;;;37.61;34.60
7966;BME280;4028;43.272;26.932;2022-08-19T09:51:15;98709.16;;;37.54;34.93
7966;BME280;4028;43.272;26.932;2022-08-19T09:53:43;98723.06;;;37.19;33.95
7966;BME280;4028;43.272;26.932;2022-08-19T09:56:11;98709.91;;;36.52;35.51
7966;BME280;4028;43.272;26.932;2022-08-19T09:58:37;98716.72;;;36.55;35.68
7966;BME280;4028;43.272;26.932;2022-08-19T10:01:03;98716.50;;;36.86;36.11
7966;BME280;4028;43.272;26.932;2022-08-19T10:03:30;98711.81;;;36.86;34.84
7966;BME280;4028;43.272;26.932;2022-08-19T10:05:58;98696.03;;;37.04;34.88
7966;BME280;4028;43.272;26.932;2022-08-19T10:08:29;98714.94;;;36.50;34.42
7966;BME280;4028;43.272;26.932;2022-08-19T10:10:56;98714.06;;;36.24;35.43
7966;BME280;4028;43.272;26.932;2022-08-19T10:13:24;98717.19;;;36.65;35.10
7966;BME280;4028;43.272;26.932;2022-08-19T10:15:55;98718.59;;;36.89;35.08
7966;BME280;4028;43.272;26.932;2022-08-19T10:18:22;98710.00;;;36.99;35.18
7966;BME280;4028;43.272;26.932;2022-08-19T10:20:49;98711.41;;;37.14;34.31
7966;BME280;4028;43.272;26.932;2022-08-19T10:23:16;98710.53;;;36.23;35.47
7966;BME280;4028;43.272;26.932;2022-08-19T10:25:42;98702.50;;;35.70;35.72
7966;BME280;4028;43.272;26.932;2022-08-19T10:28:08;98707.28;;;35.95;36.07
7966;BME280;4028;43.272;26.932;2022-08-19T10:30:40;98707.47;;;36.51;35.16
7966;BME280;4028;43.272;26.932;2022-08-19T10:33:07;98705.84;;;36.58;34.99
7966;BME280;4028;43.272;26.932;2022-08-19T10:35:32;98717.00;;;36.36;35.21
7966;BME280;4028;43.272;26.932;2022-08-19T10:37:58;98710.34;;;36.02;36.64
7966;BME280;4028;43.272;26.932;2022-08-19T10:40:25;98709.22;;;35.46;36.65
7966;BME280;4028;43.272;26.932;2022-08-19T10:42:50;98701.28;;;35.45;36.88
7966;BME280;4028;43.272;26.932;2022-08-19T10:45:16;98706.81;;;36.10;35.81
7966;BME280;4028;43.272;26.932;2022-08-19T10:47:42;98716.34;;;36.65;34.76
7966;BME280;4028;43.272;26.932;2022-08-19T10:50:07;98694.81;;;36.58;33.90
7966;BME280;4028;43.272;26.932;2022-08-19T10:52:51;98713.47;;;36.44;34.56
7966;BME280;4028;43.272;26.932;2022-08-19T10:55:23;98712.31;;;36.28;34.67
7966;BME280;4028;43.272;26.932;2022-08-19T10:58:21;98714.91;;;36.33;34.44
7966;BME280;4028;43.272;26.932;2022-08-19T11:00:57;98712.19;;;36.50;35.47
7966;BME280;4028;43.272;26.932;2022-08-19T11:03:24;98721.06;;;36.30;33.25
7966;BME280;4028;43.272;26.932;2022-08-19T11:05:58;98712.78;;;36.12;34.95
7966;BME280;4028;43.272;26.932;2022-08-19T11:08:24;98703.59;;;36.43;33.36
7966;BME280;4028;43.272;26.932;2022-08-19T11:10:53;98712.00;;;36.29;33.54
7966;BME280;4028;43.272;26.932;2022-08-19T11:13:27;98700.16;;;36.63;34.34
7966;BME280;4028;43.272;26.932;2022-08-19T11:16:01;98695.09;;;36.83;33.86
7966;BME280;4028;43.272;26.932;2022-08-19T11:18:28;98704.22;;;36.31;33.78
7966;BME280;4028;43.272;26.932;2022-08-19T11:20:53;98704.63;;;35.90;34.55
7966;BME280;4028;43.272;26.932;2022-08-19T11:23:19;98706.38;;;35.68;35.11
7966;BME280;4028;43.272;26.932;2022-08-19T11:25:45;98694.81;;;36.06;34.84
7966;BME280;4028;43.272;26.932;2022-08-19T11:28:11;98693.19;;;36.49;34.05
7966;BME280;4028;43.272;26.932;2022-08-19T11:30:38;98687.06;;;36.43;32.93
7966;BME280;4028;43.272;26.932;2022-08-19T11:33:04;98677.16;;;35.99;34.32
7966;BME280;4028;43.272;26.932;2022-08-19T11:35:29;98687.47;;;35.93;34.10
7966;BME280;4028;43.272;26.932;2022-08-19T11:37:55;98674.06;;;36.00;34.64
7966;BME280;4028;43.272;26.932;2022-08-19T11:40:23;98687.69;;;36.05;34.60
7966;BME280;4028;43.272;26.932;2022-08-19T11:42:48;98684.69;;;35.76;34.59
7966;BME280;4028;43.272;26.932;2022-08-19T11:45:22;98687.41;;;35.67;35.04
7966;BME280;4028;43.272;26.932;2022-08-19T11:47:48;98657.16;;;35.58;34.59
7966;BME280;4028;43.272;26.932;2022-08-19T11:50:15;98679.22;;;35.93;34.64
7966;BME280;4028;43.272;26.932;2022-08-19T11:52:41;98677.47;;;36.06;34.14
7966;BME280;4028;43.272;26.932;2022-08-19T11:55:08;98669.69;;;36.08;35.31
7966;BME280;4028;43.272;26.932;2022-08-19T11:57:33;98672.47;;;35.99;35.65
7966;BME280;4028;43.272;26.932;2022-08-19T11:59:59;98671.97;;;35.97;36.32
7966;BME280;4028;43.272;26.932;2022-08-19T12:02:24;98675.06;;;35.47;36.06
7966;BME280;4028;43.272;26.932;2022-08-19T12:04:50;98669.44;;;34.90;36.09
7966;BME280;4028;43.272;26.932;2022-08-19T12:07:16;98661.47;;;34.12;38.31
7966;BME280;4028;43.272;26.932;2022-08-19T12:09:41;98666.00;;;34.53;37.45
7966;BME280;4028;43.272;26.932;2022-08-19T12:12:08;98666.59;;;34.95;37.49
7966;BME280;4028;43.272;26.932;2022-08-19T12:14:34;98662.00;;;34.90;37.38
7966;BME280;4028;43.272;26.932;2022-08-19T12:16:59;98662.38;;;34.67;38.23
7966;BME280;4028;43.272;26.932;2022-08-19T12:19:25;98657.16;;;34.43;38.85
7966;BME280;4028;43.272;26.932;2022-08-19T12:21:51;98652.41;;;34.34;37.24
7966;BME280;4028;43.272;26.932;2022-08-19T12:24:20;98650.84;;;34.56;36.92
7966;BME280;4028;43.272;26.932;2022-08-19T12:26:48;98643.16;;;34.67;37.29
7966;BME280;4028;43.272;26.932;2022-08-19T12:29:14;98655.22;;;34.88;36.50
7966;BME280;4028;43.272;26.932;2022-08-19T12:31:40;98646.81;;;34.39;36.22
7966;BME280;4028;43.272;26.932;2022-08-19T12:34:05;98656.53;;;34.23;36.34
7966;BME280;4028;43.272;26.932;2022-08-19T12:36:31;98660.09;;;34.24;37.01
7966;BME280;4028;43.272;26.932;2022-08-19T12:38:58;98648.63;;;34.22;36.47
7966;BME280;4028;43.272;26.932;2022-08-19T12:41:24;98640.13;;;34.32;36.52
7966;BME280;4028;43.272;26.932;2022-08-19T12:43:50;98636.53;;;34.68;35.81
7966;BME280;4028;43.272;26.932;2022-08-19T12:46:16;98640.34;;;34.89;36.30
7966;BME280;4028;43.272;26.932;2022-08-19T12:48:43;98641.16;;;34.89;34.84
7966;BME280;4028;43.272;26.932;2022-08-19T12:51:14;98640.00;;;35.13;35.32
7966;BME280;4028;43.272;26.932;2022-08-19T12:53:40;98628.53;;;35.20;35.25
7966;BME280;4028;43.272;26.932;2022-08-19T12:56:07;98642.19;;;35.42;34.13
7966;BME280;4028;43.272;26.932;2022-08-19T12:58:34;98632.03;;;35.51;34.49
7966;BME280;4028;43.272;26.932;2022-08-19T13:01:10;98644.44;;;35.40;34.66
7966;BME280;4028;43.272;26.932;2022-08-19T13:03:36;98650.50;;;35.51;35.46
7966;BME280;4028;43.272;26.932;2022-08-19T13:06:02;98649.31;;;35.43;35.06
7966;BME280;4028;43.272;26.932;2022-08-19T13:08:27;98641.38;;;35.41;35.99
7966;BME280;4028;43.272;26.932;2022-08-19T13:10:53;98633.78;;;35.38;34.55
7966;BME280;4028;43.272;26.932;2022-08-19T13:13:18;98601.88;;;34.89;35.02
7966;BME280;4028;43.272;26.932;2022-08-19T13:15:44;98623.22;;;34.92;35.02
7966;BME280;4028;43.272;26.932;2022-08-19T13:18:11;98639.63;;;34.97;34.64
7966;BME280;4028;43.272;26.932;2022-08-19T13:20:38;98638.28;;;34.95;35.59
7966;BME280;4028;43.272;26.932;2022-08-19T13:23:06;98643.75;;;34.86;36.09